createdAt,value
2023-04-13T00:00:18.979Z,75.20
2023-04-13T00:03:21.108Z,74.20
2023-04-13T00:06:23.249Z,74.70
2023-04-13T00:09:25.655Z,74.30
2023-04-13T00:12:27.614Z,74.00
2023-04-13T00:15:29.900Z,73.00
2023-04-13T00:18:31.877Z,72.50
2023-04-13T00:21:33.859Z,71.20
2023-04-13T00:24:35.803Z,71.80
2023-04-13T00:27:44.748Z,71.90
2023-04-13T00:30:46.844Z,71.10
2023-04-13T00:33:48.804Z,71.70
2023-04-13T00:36:50.782Z,71.40
2023-04-13T00:39:52.984Z,70.70
2023-04-13T00:42:57.373Z,71.70
2023-04-13T00:46:00.471Z,72.20
2023-04-13T00:49:03.292Z,71.80
2023-04-13T00:52:06.000Z,71.70
2023-04-13T00:55:08.746Z,72.30
2023-04-13T00:58:11.272Z,71.70
2023-04-13T01:01:13.489Z,70.30
2023-04-13T01:04:16.831Z,70.90
2023-04-13T01:07:24.874Z,71.20
2023-04-13T01:10:49.483Z,71.90
2023-04-13T01:14:17.113Z,72.70
2023-04-13T01:17:23.864Z,72.30
2023-04-13T01:20:28.891Z,72.10
2023-04-13T01:23:55.013Z,71.40
2023-04-13T01:27:13.373Z,71.80
2023-04-13T01:30:17.152Z,71.50
2023-04-13T01:33:20.615Z,71.50
2023-04-13T01:36:23.653Z,72.00
2023-04-13T01:39:25.789Z,71.10
2023-04-13T01:42:41.164Z,71.60
2023-04-13T01:46:10.846Z,71.40
2023-04-13T01:49:23.185Z,71.20
2023-04-13T01:52:43.569Z,71.80
2023-04-13T01:55:50.298Z,71.80
2023-04-13T01:58:56.737Z,71.80
2023-04-13T02:02:00.259Z,72.20
2023-04-13T02:05:02.519Z,72.40
2023-04-13T02:08:05.839Z,72.70
2023-04-13T02:11:11.445Z,73.00
2023-04-13T02:14:13.533Z,72.90
2023-04-13T02:17:16.213Z,73.00
2023-04-13T02:20:18.345Z,73.10
2023-04-13T02:23:20.339Z,72.40
2023-04-13T02:26:22.380Z,72.50
2023-04-13T02:29:24.421Z,72.20
2023-04-13T02:32:34.117Z,71.30
2023-04-13T02:35:36.804Z,72.40
2023-04-13T02:38:38.822Z,71.80
2023-04-13T02:41:46.877Z,71.40
2023-04-13T02:44:53.984Z,71.50
2023-04-13T02:47:56.240Z,71.20
2023-04-13T02:50:58.731Z,72.00
2023-04-13T02:54:05.884Z,71.20
2023-04-13T02:57:13.576Z,71.40
2023-04-13T03:00:17.767Z,71.30
2023-04-13T03:03:29.531Z,71.40
2023-04-13T03:06:32.200Z,70.90
2023-04-13T03:09:40.643Z,71.00
2023-04-13T03:12:43.762Z,71.10
2023-04-13T03:15:46.895Z,71.30
2023-04-13T03:18:50.708Z,70.90
2023-04-13T03:21:53.146Z,70.40
2023-04-13T03:24:59.542Z,70.80
2023-04-13T03:28:08.656Z,69.80
2023-04-13T03:31:16.202Z,69.90
2023-04-13T03:34:19.145Z,69.30
2023-04-13T03:37:22.430Z,69.80
2023-04-13T03:40:24.811Z,68.80
2023-04-13T03:43:28.370Z,69.30
2023-04-13T03:46:38.140Z,69.00
2023-04-13T03:49:50.704Z,68.70
2023-04-13T03:52:53.231Z,69.00
2023-04-13T03:55:56.759Z,68.70
2023-04-13T03:58:59.335Z,68.70
2023-04-13T04:02:02.744Z,68.30
2023-04-13T04:05:06.857Z,68.50
2023-04-13T04:08:09.942Z,68.00
2023-04-13T04:11:13.252Z,68.00
2023-04-13T04:14:15.336Z,68.00
2023-04-13T04:17:26.338Z,68.10
2023-04-13T04:20:28.868Z,67.90
2023-04-13T04:23:31.207Z,67.40
2023-04-13T04:26:38.239Z,67.70
2023-04-13T04:29:40.661Z,68.10
2023-04-13T04:33:08.852Z,67.50
2023-04-13T04:36:12.511Z,67.40
2023-04-13T04:39:18.647Z,67.10
2023-04-13T04:42:27.203Z,66.90
2023-04-13T04:45:30.683Z,67.40
2023-04-13T04:48:37.097Z,66.80
2023-04-13T04:51:40.116Z,66.70
2023-04-13T04:54:42.172Z,66.50
2023-04-13T04:57:45.708Z,66.90
2023-04-13T05:00:49.939Z,67.10
2023-04-13T05:03:53.621Z,67.50
2023-04-13T05:07:04.251Z,67.70
2023-04-13T05:10:11.790Z,67.80
2023-04-13T05:13:19.764Z,67.50
2023-04-13T05:16:33.932Z,67.30
2023-04-13T05:19:42.400Z,67.40
2023-04-13T05:23:11.840Z,67.40
2023-04-13T05:26:23.339Z,67.00
2023-04-13T05:29:26.316Z,66.80
2023-04-13T05:32:28.598Z,67.20
2023-04-13T05:35:34.269Z,67.20
2023-04-13T05:38:39.459Z,66.90
2023-04-13T05:41:41.905Z,66.70
2023-04-13T05:44:44.423Z,67.80
2023-04-13T05:47:48.074Z,67.10
2023-04-13T05:50:51.307Z,67.70
2023-04-13T05:53:53.942Z,67.60
2023-04-13T05:56:56.288Z,68.00
2023-04-13T05:59:59.324Z,67.80
2023-04-13T06:03:16.355Z,68.50
2023-04-13T06:06:18.905Z,68.70
2023-04-13T06:09:20.951Z,68.80
2023-04-13T06:12:23.277Z,68.60
2023-04-13T06:15:25.480Z,68.20
2023-04-13T06:18:29.507Z,68.70
2023-04-13T06:21:34.926Z,68.40
2023-04-13T06:24:37.004Z,67.90
2023-04-13T06:27:39.488Z,67.30
2023-04-13T06:30:41.632Z,66.70
2023-04-13T06:33:47.495Z,67.20
2023-04-13T06:36:51.014Z,65.90
2023-04-13T06:39:56.762Z,66.50
2023-04-13T06:42:59.528Z,66.50
2023-04-13T06:46:14.475Z,65.00
2023-04-13T06:49:19.300Z,65.70
2023-04-13T06:52:21.828Z,64.00
2023-04-13T06:55:24.143Z,62.70
2023-04-13T06:58:26.372Z,61.70
2023-04-13T07:01:28.965Z,61.50
2023-04-13T07:04:33.908Z,61.30
2023-04-13T07:07:38.761Z,62.60
2023-04-13T07:10:41.554Z,62.90
2023-04-13T07:13:52.684Z,63.50
2023-04-13T07:16:55.310Z,63.40
2023-04-13T07:19:57.518Z,63.70
2023-04-13T07:22:59.721Z,63.70
2023-04-13T07:26:02.073Z,63.70
2023-04-13T07:29:05.350Z,62.90
2023-04-13T07:32:11.439Z,62.70
2023-04-13T07:35:14.335Z,61.10
2023-04-13T07:38:18.668Z,60.20
2023-04-13T07:41:20.814Z,60.60
2023-04-13T07:44:24.082Z,60.90
2023-04-13T07:47:27.590Z,61.50
2023-04-13T07:50:40.903Z,63.40
2023-04-13T07:53:46.203Z,67.40
2023-04-13T07:56:48.799Z,67.90
2023-04-13T07:59:54.291Z,68.40
2023-04-13T08:02:56.853Z,68.90
2023-04-13T08:06:00.616Z,67.80
2023-04-13T08:09:02.963Z,66.50
2023-04-13T08:12:06.038Z,67.10
2023-04-13T08:15:10.610Z,67.20
2023-04-13T08:18:14.377Z,68.40
2023-04-13T08:21:16.768Z,67.50
2023-04-13T08:24:22.041Z,68.30
2023-04-13T08:27:24.047Z,69.60
2023-04-13T08:30:26.144Z,67.60
2023-04-13T08:33:33.609Z,67.00
2023-04-13T08:36:35.894Z,67.50
2023-04-13T08:39:41.057Z,64.20
2023-04-13T08:42:44.268Z,60.50
2023-04-13T08:45:48.018Z,60.80
2023-04-13T08:48:54.301Z,61.90
2023-04-13T08:52:05.594Z,60.70
2023-04-13T08:55:08.527Z,59.40
2023-04-13T08:58:13.545Z,61.90
2023-04-13T09:01:17.224Z,62.00
2023-04-13T09:04:21.749Z,62.50
2023-04-13T09:07:31.668Z,62.90
2023-04-13T09:10:38.444Z,64.30
2023-04-13T09:13:40.921Z,64.30
2023-04-13T09:16:43.935Z,65.40
2023-04-13T09:19:52.903Z,63.40
2023-04-13T09:22:54.712Z,61.30
2023-04-13T09:26:09.465Z,56.90
2023-04-13T09:29:14.877Z,57.00
2023-04-13T09:32:24.674Z,56.80
2023-04-13T09:35:33.798Z,58.10
2023-04-13T09:38:36.315Z,58.20
2023-04-13T09:41:40.521Z,58.70
2023-04-13T09:44:57.919Z,57.10
2023-04-13T09:48:00.009Z,55.90
2023-04-13T09:51:03.403Z,54.60
2023-04-13T09:54:05.652Z,53.50
2023-04-13T09:57:31.699Z,53.70
2023-04-13T10:00:33.911Z,57.00
2023-04-13T10:03:37.521Z,55.10
2023-04-13T10:06:41.192Z,56.00
2023-04-13T10:09:45.581Z,57.00
2023-04-13T10:12:51.235Z,58.40
2023-04-13T10:16:23.272Z,59.30
2023-04-13T10:19:29.857Z,59.90
2023-04-13T10:22:32.330Z,60.60
2023-04-13T10:25:36.264Z,59.50
2023-04-13T10:28:44.234Z,60.30
2023-04-13T10:31:48.449Z,60.30
2023-04-13T10:34:52.633Z,61.80
2023-04-13T10:37:58.562Z,61.80
2023-04-13T10:41:00.551Z,60.20
2023-04-13T10:44:08.663Z,60.10
2023-04-13T10:47:11.633Z,58.20
2023-04-13T11:03:21.996Z,57.20
2023-04-13T11:06:24.453Z,58.90
2023-04-13T11:09:26.586Z,59.40
2023-04-13T11:12:28.637Z,60.80
2023-04-13T11:15:31.438Z,60.00
2023-04-13T11:18:33.577Z,59.10
2023-04-13T11:21:35.821Z,59.70
2023-04-13T11:24:37.830Z,59.20
2023-04-13T11:27:39.786Z,57.90
2023-04-13T11:30:41.786Z,58.30
2023-04-13T11:33:48.319Z,59.10
2023-04-13T11:36:56.879Z,57.90
2023-04-13T11:39:58.870Z,58.10
2023-04-13T11:43:01.346Z,58.00
2023-04-13T11:46:03.218Z,56.70
2023-04-13T11:49:05.405Z,55.30
2023-04-13T11:52:07.746Z,55.10
2023-04-13T11:55:21.629Z,55.10
2023-04-13T11:58:32.491Z,54.00
2023-04-13T12:01:36.702Z,53.50
2023-04-13T12:04:42.044Z,54.80
2023-04-13T12:07:44.632Z,54.90
2023-04-13T12:17:26.173Z,53.20
2023-04-13T12:20:40.993Z,53.70
2023-04-13T12:23:55.715Z,54.90
2023-04-13T12:27:17.788Z,54.80
2023-04-13T12:30:22.870Z,55.20
2023-04-13T12:33:24.929Z,56.50
2023-04-13T12:36:26.980Z,59.80
2023-04-13T12:39:28.879Z,63.70
2023-04-13T12:42:30.933Z,64.50
2023-04-13T12:45:32.901Z,64.80
2023-04-13T12:48:34.915Z,62.50
2023-04-13T12:51:36.976Z,62.40
2023-04-13T12:54:38.902Z,60.90
2023-04-13T12:57:40.924Z,59.70
2023-04-13T13:00:42.922Z,60.40
2023-04-13T13:03:45.155Z,59.50
2023-04-13T13:06:47.416Z,58.30
2023-04-13T13:09:50.190Z,58.40
2023-04-13T13:12:52.151Z,60.00
2023-04-13T13:15:55.760Z,64.80
2023-04-13T13:18:57.785Z,68.60
2023-04-13T13:22:00.157Z,67.70
2023-04-13T13:25:02.072Z,66.90
2023-04-13T13:28:13.797Z,65.60
2023-04-13T13:31:17.110Z,59.90
2023-04-13T13:34:19.099Z,59.00
2023-04-13T13:37:21.098Z,55.00
2023-04-13T13:40:23.113Z,57.90
2023-04-13T13:43:26.992Z,59.00
2023-04-13T13:46:29.000Z,58.10
2023-04-13T13:49:34.327Z,58.30
2023-04-13T13:53:08.588Z,60.20
2023-04-13T13:56:15.488Z,61.50
2023-04-13T13:59:17.736Z,60.50
2023-04-13T14:02:19.861Z,61.40
2023-04-13T14:05:22.158Z,62.20
2023-04-13T14:08:24.247Z,59.40
2023-04-13T14:11:26.225Z,59.60
2023-04-13T14:14:28.228Z,58.90
2023-04-13T14:17:30.438Z,60.80
2023-04-13T14:20:33.725Z,56.10
2023-04-13T14:23:35.949Z,54.50
2023-04-13T14:26:38.072Z,55.40
2023-04-13T14:29:40.096Z,54.60
2023-04-13T14:32:42.220Z,53.20
2023-04-13T14:35:44.357Z,52.70
2023-04-13T14:38:46.345Z,50.40
2023-04-13T14:41:48.307Z,49.80
2023-04-13T14:44:52.996Z,48.60
2023-04-13T14:47:55.093Z,47.30
2023-04-13T14:50:57.198Z,48.20
2023-04-13T14:53:59.502Z,48.20
2023-04-13T14:57:02.127Z,48.10
2023-04-13T15:00:05.478Z,47.20
2023-04-13T15:03:10.229Z,48.20
2023-04-13T15:06:13.080Z,49.40
2023-04-13T15:09:15.984Z,50.10
2023-04-13T15:12:18.067Z,51.10
2023-04-13T15:15:20.271Z,50.60
2023-04-13T15:18:22.534Z,50.90
2023-04-13T15:21:26.815Z,51.90
2023-04-13T15:24:28.801Z,50.90
2023-04-13T15:27:31.181Z,52.60
2023-04-13T15:30:39.496Z,50.30
2023-04-13T15:33:41.565Z,51.50
2023-04-13T15:36:43.539Z,52.00
2023-04-13T15:39:45.540Z,52.90
2023-04-13T15:42:47.809Z,52.40
2023-04-13T15:45:49.870Z,52.70
2023-04-13T15:48:51.929Z,53.20
2023-04-13T15:51:54.045Z,52.90
2023-04-13T15:54:56.249Z,52.80
2023-04-13T15:57:58.234Z,52.60
2023-04-13T16:01:05.777Z,52.70
2023-04-13T16:04:08.887Z,53.50
2023-04-13T16:07:14.099Z,53.40
2023-04-13T16:10:17.403Z,53.30
2023-04-13T16:13:19.544Z,52.90
2023-04-13T16:16:21.740Z,52.70
2023-04-13T16:19:23.761Z,52.20
2023-04-13T16:22:25.863Z,51.40
2023-04-13T16:25:28.126Z,50.90
2023-04-13T16:28:30.136Z,50.90
2023-04-13T16:31:32.446Z,51.20
2023-04-13T16:34:34.708Z,53.20
2023-04-13T16:37:36.761Z,52.80
2023-04-13T16:40:38.874Z,53.40
2023-04-13T16:43:40.860Z,53.80
2023-04-13T16:46:46.420Z,53.80
2023-04-13T16:49:48.402Z,55.10
2023-04-13T16:52:50.407Z,55.50
2023-04-13T16:55:52.549Z,55.00
2023-04-13T16:58:54.913Z,55.50
2023-04-13T17:01:56.883Z,56.30
2023-04-13T17:04:59.022Z,56.90
2023-04-13T17:08:01.437Z,57.20
2023-04-13T17:11:03.910Z,57.40
2023-04-13T17:14:05.856Z,58.00
2023-04-13T17:17:07.922Z,58.50
2023-04-13T17:20:12.367Z,58.90
2023-04-13T17:23:14.428Z,59.20
2023-04-13T17:26:16.523Z,60.70
2023-04-13T17:29:18.566Z,61.50
2023-04-13T17:32:20.716Z,62.00
2023-04-13T17:35:22.855Z,62.80
2023-04-13T17:38:25.030Z,62.40
2023-04-13T17:41:27.194Z,60.70
2023-04-13T17:44:29.187Z,61.00
2023-04-13T17:47:31.326Z,62.30
2023-04-13T17:50:33.560Z,64.10
2023-04-13T17:53:35.951Z,65.20
2023-04-13T17:56:38.247Z,64.40
2023-04-13T17:59:41.335Z,64.90
2023-04-13T18:02:43.497Z,64.40
2023-04-13T18:05:45.791Z,61.60
2023-04-13T18:08:47.949Z,59.50
2023-04-13T18:11:51.934Z,58.20
2023-04-13T18:14:54.046Z,59.80
2023-04-13T18:17:58.803Z,60.20
2023-04-13T18:21:01.445Z,60.50
2023-04-13T18:24:03.937Z,63.00
2023-04-13T18:27:05.929Z,62.10
2023-04-13T18:30:08.660Z,62.10
2023-04-13T18:33:11.273Z,63.10
2023-04-13T18:36:16.376Z,64.00
2023-04-13T18:39:18.328Z,64.60
2023-04-13T18:42:20.382Z,65.30
2023-04-13T18:45:22.612Z,66.10
2023-04-13T18:48:24.685Z,66.70
2023-04-13T18:51:26.909Z,68.00
2023-04-13T18:54:28.892Z,68.20
2023-04-13T18:57:31.755Z,68.90
2023-04-13T19:00:33.936Z,69.30
2023-04-13T19:03:36.126Z,69.10
2023-04-13T19:06:38.301Z,69.70
2023-04-13T19:09:40.302Z,70.10
2023-04-13T19:12:42.351Z,70.40
2023-04-13T19:15:44.487Z,70.00
2023-04-13T19:18:46.471Z,69.90
2023-04-13T19:21:51.857Z,69.90
2023-04-13T19:24:53.805Z,69.40
2023-04-13T19:28:02.087Z,70.10
2023-04-13T19:31:04.171Z,70.20
2023-04-13T19:34:06.554Z,69.60
2023-04-13T19:37:08.623Z,69.20
2023-04-13T19:40:10.920Z,70.00
2023-04-13T19:43:12.905Z,69.50
2023-04-13T19:46:15.117Z,69.90
2023-04-13T19:49:17.390Z,71.30
2023-04-13T19:52:21.776Z,72.20
2023-04-13T19:55:24.034Z,71.80
2023-04-13T20:01:43.772Z,73.10
2023-04-13T20:04:47.388Z,73.00
2023-04-13T20:07:49.348Z,72.10
2023-04-13T20:10:51.389Z,72.80
2023-04-13T20:13:56.177Z,72.50
2023-04-13T20:16:58.245Z,73.20
2023-04-13T20:20:02.418Z,73.00
2023-04-13T20:23:04.940Z,74.20
2023-04-13T20:26:06.957Z,74.20
2023-04-13T20:29:09.036Z,74.40
2023-04-13T20:32:10.999Z,75.20
2023-04-13T20:35:14.042Z,75.40
2023-04-13T20:38:16.353Z,75.20
2023-04-13T20:41:18.448Z,74.90
2023-04-13T20:44:24.413Z,75.30
2023-04-13T20:47:27.291Z,75.50
2023-04-13T20:50:29.538Z,75.50
2023-04-13T20:53:32.367Z,75.50
2023-04-13T20:56:34.348Z,75.30
2023-04-13T20:59:36.444Z,75.30
2023-04-13T21:02:38.646Z,75.60
2023-04-13T21:05:40.884Z,76.00
2023-04-13T21:08:45.316Z,75.90
2023-04-13T21:11:47.309Z,76.20
2023-04-13T21:14:49.300Z,76.50
2023-04-13T21:17:51.399Z,76.40
2023-04-13T21:20:53.352Z,76.60
2023-04-13T21:23:55.295Z,76.80
2023-04-13T21:26:57.579Z,75.60
2023-04-13T21:29:59.867Z,76.00
2023-04-13T21:33:02.301Z,76.20
2023-04-13T21:39:16.778Z,76.10
2023-04-13T21:42:20.340Z,77.00
2023-04-13T21:45:24.259Z,76.10
2023-04-13T21:48:26.524Z,76.50
2023-04-13T21:51:28.595Z,77.20
2023-04-13T21:54:30.661Z,77.50
2023-04-13T21:57:32.677Z,78.30
2023-04-13T22:00:37.902Z,77.90
2023-04-13T22:03:46.471Z,78.10
2023-04-13T22:06:48.712Z,78.00
2023-04-13T22:09:50.818Z,77.90
2023-04-13T22:12:52.811Z,77.60
2023-04-13T22:15:55.362Z,77.90
2023-04-13T22:18:59.221Z,79.20
2023-04-13T22:22:01.531Z,79.10
2023-04-13T22:25:06.094Z,78.80
2023-04-13T22:28:09.160Z,78.80
2023-04-13T22:31:13.193Z,78.60
2023-04-13T22:34:15.219Z,78.70
2023-04-13T22:37:17.848Z,78.90
2023-04-13T22:40:20.130Z,79.20
2023-04-13T22:43:22.369Z,78.70
2023-04-13T22:46:24.465Z,78.60
2023-04-13T22:49:28.740Z,78.80
2023-04-13T22:52:30.830Z,79.20
2023-04-13T22:55:33.105Z,79.90
2023-04-13T22:58:35.092Z,80.20
2023-04-13T23:01:37.128Z,80.80
2023-04-13T23:04:39.240Z,80.40
2023-04-13T23:07:41.361Z,80.40
2023-04-13T23:10:45.808Z,80.80
2023-04-13T23:13:47.827Z,81.10
2023-04-13T23:16:49.935Z,80.80
2023-04-13T23:19:54.872Z,80.40
2023-04-13T23:22:57.461Z,81.00
2023-04-13T23:25:59.401Z,80.50
2023-04-13T23:29:01.665Z,80.60
2023-04-13T23:32:03.878Z,80.50
2023-04-13T23:35:06.869Z,82.00
2023-04-13T23:38:08.798Z,81.70
2023-04-13T23:41:14.320Z,81.70
2023-04-13T23:44:16.361Z,81.60
2023-04-13T23:47:18.466Z,81.80
2023-04-13T23:50:20.765Z,81.00
2023-04-13T23:53:22.841Z,80.90
2023-04-13T23:56:24.839Z,81.70
2023-04-13T23:59:26.931Z,82.50
